createdAt,value
2022-11-28T00:04:09.718Z,1.58
2022-11-28T00:09:31.493Z,0.85
2022-11-28T00:14:53.184Z,0.95
2022-11-28T00:20:14.926Z,0.63
2022-11-28T00:25:39.352Z,2.85
2022-11-28T00:31:01.373Z,1.58
2022-11-28T00:36:23.642Z,1.33
2022-11-28T00:41:45.731Z,1.08
2022-11-28T00:47:07.439Z,1.23
2022-11-28T00:52:29.189Z,1.10
2022-11-28T00:57:50.901Z,0.77
2022-11-28T01:03:12.560Z,0.70
2022-11-28T01:08:34.519Z,1.30
2022-11-28T01:13:58.375Z,0.80
2022-11-28T01:19:20.526Z,1.02
2022-11-28T01:24:42.415Z,0.75
2022-11-28T01:30:05.854Z,0.55
2022-11-28T01:35:27.916Z,0.68
2022-11-28T01:40:50.076Z,2.15
2022-11-28T01:46:11.944Z,0.98
2022-11-28T01:51:34.355Z,0.52
2022-11-28T01:57:00.830Z,0.60
2022-11-28T02:02:30.584Z,0.85
2022-11-28T02:07:52.948Z,0.43
2022-11-28T02:13:37.489Z,0.75
2022-11-28T02:19:27.353Z,0.55
2022-11-28T02:25:16.828Z,0.68
2022-11-28T02:31:02.824Z,1.08
2022-11-28T02:36:52.906Z,0.70
2022-11-28T02:42:30.318Z,0.50
2022-11-28T02:48:02.887Z,0.85
2022-11-28T02:53:27.954Z,0.52
2022-11-28T02:58:49.762Z,0.30
2022-11-28T03:04:52.754Z,0.80
2022-11-28T03:10:37.409Z,0.65
2022-11-28T03:16:22.058Z,0.43
2022-11-28T03:22:05.389Z,0.57
2022-11-28T03:27:36.138Z,0.20
2022-11-28T03:33:01.024Z,0.65
2022-11-28T03:38:29.524Z,0.20
2022-11-28T03:43:56.614Z,0.30
2022-11-28T03:49:25.949Z,0.30
2022-11-28T03:54:53.510Z,0.28
2022-11-28T04:00:16.153Z,0.52
2022-11-28T04:06:20.392Z,0.20
2022-11-28T04:11:49.710Z,0.40
2022-11-28T04:17:19.131Z,0.30
2022-11-28T04:22:49.120Z,0.20
2022-11-28T04:28:19.051Z,0.45
2022-11-28T04:33:44.328Z,0.38
2022-11-28T04:39:11.696Z,0.32
2022-11-28T04:44:48.593Z,0.30
2022-11-28T04:50:10.847Z,0.50
2022-11-28T04:55:43.034Z,0.45
2022-11-28T05:01:08.217Z,0.30
2022-11-28T05:06:33.019Z,0.20
2022-11-28T05:11:54.709Z,0.20
2022-11-28T05:17:16.397Z,0.20
2022-11-28T05:22:38.110Z,0.50
2022-11-28T05:27:59.796Z,0.30
2022-11-28T05:33:21.490Z,0.43
2022-11-28T05:38:44.121Z,0.25
2022-11-28T05:44:05.922Z,0.20
2022-11-28T05:49:28.982Z,0.30
2022-11-28T05:54:51.140Z,0.68
2022-11-28T06:00:14.573Z,1.23
2022-11-28T06:05:43.820Z,0.43
2022-11-28T06:11:06.611Z,0.20
2022-11-28T06:16:29.869Z,0.10
2022-11-28T06:21:51.664Z,0.20
2022-11-28T06:27:13.327Z,0.50
2022-11-28T06:32:35.087Z,0.75
2022-11-28T06:37:56.736Z,0.30
2022-11-28T06:43:18.406Z,0.75
2022-11-28T06:48:40.395Z,0.10
2022-11-28T06:54:02.148Z,0.25
2022-11-28T06:59:23.826Z,0.30
2022-11-28T07:04:45.543Z,1.75
2022-11-28T07:10:07.933Z,1.83
2022-11-28T07:15:29.645Z,0.63
2022-11-28T07:20:51.385Z,4.50
2022-11-28T07:26:14.840Z,0.88
2022-11-28T07:31:37.247Z,2.40
2022-11-28T07:36:58.960Z,5.45
2022-11-28T07:42:20.596Z,6.85
2022-11-28T07:47:42.319Z,3.55
2022-11-28T07:53:07.196Z,0.63
2022-11-28T07:58:29.131Z,2.22
2022-11-28T08:03:52.527Z,3.80
2022-11-28T08:09:14.299Z,7.97
2022-11-28T08:14:36.013Z,4.90
2022-11-28T08:19:57.789Z,1.60
2022-11-28T08:25:19.423Z,5.50
2022-11-28T08:30:41.449Z,2.58
2022-11-28T08:36:08.298Z,3.58
2022-11-28T08:41:30.001Z,2.88
2022-11-28T08:46:51.896Z,4.72
2022-11-28T08:52:13.557Z,7.05
2022-11-28T08:57:35.262Z,3.63
2022-11-28T09:02:57.001Z,3.95
2022-11-28T09:08:20.415Z,3.30
2022-11-28T09:13:42.171Z,2.33
2022-11-28T09:19:04.319Z,4.38
2022-11-28T09:24:26.052Z,3.70
2022-11-28T09:29:47.748Z,4.20
2022-11-28T09:35:09.578Z,2.88
2022-11-28T09:40:44.806Z,4.10
2022-11-28T09:46:13.494Z,4.53
2022-11-28T09:51:45.221Z,1.15
2022-11-28T09:57:18.899Z,3.55
2022-11-28T10:03:01.712Z,4.03
2022-11-28T10:08:31.836Z,5.30
2022-11-28T10:14:08.851Z,3.17
2022-11-28T10:19:53.710Z,4.10
2022-11-28T10:25:24.939Z,2.17
2022-11-28T10:30:52.303Z,4.05
2022-11-28T10:36:46.297Z,4.38
2022-11-28T10:42:18.792Z,2.92
2022-11-28T10:48:37.945Z,1.73
2022-11-28T10:54:02.000Z,1.73
2022-11-28T10:59:36.690Z,2.25
2022-11-28T11:04:58.475Z,2.63
2022-11-28T11:10:29.667Z,2.97
2022-11-28T11:16:02.944Z,2.83
2022-11-28T11:21:26.933Z,2.45
2022-11-28T11:26:49.798Z,3.78
2022-11-28T11:32:26.900Z,1.85
2022-11-28T11:37:48.636Z,2.45
2022-11-28T11:43:36.798Z,0.75
2022-11-28T11:48:58.444Z,1.60
2022-11-28T11:54:20.306Z,4.05
2022-11-28T11:59:50.732Z,3.13
2022-11-28T12:05:46.618Z,3.75
2022-11-28T12:11:13.649Z,1.08
2022-11-28T12:17:46.705Z,2.88
2022-11-28T12:22:58.446Z,2.83
2022-11-28T12:28:49.322Z,1.88
2022-11-28T12:34:52.353Z,2.00
2022-11-28T12:40:26.101Z,1.42
2022-11-28T12:46:04.667Z,1.00
2022-11-28T12:51:36.127Z,2.38
2022-11-28T12:57:18.120Z,4.18
2022-11-28T13:03:10.669Z,1.25
2022-11-28T13:08:49.359Z,1.08
2022-11-28T13:14:30.472Z,4.40
2022-11-28T13:20:29.051Z,2.97
2022-11-28T13:26:03.405Z,1.00
2022-11-28T13:31:40.087Z,1.45
2022-11-28T13:43:13.127Z,4.37
2022-11-28T13:49:13.117Z,3.38
2022-11-28T13:54:19.968Z,1.83
2022-11-28T13:59:48.950Z,3.35
2022-11-28T14:05:37.368Z,5.30
2022-11-28T14:11:24.097Z,6.43
2022-11-28T14:17:16.652Z,10.70
2022-11-28T14:23:12.168Z,8.95
2022-11-28T14:28:37.902Z,10.60
2022-11-28T14:34:11.016Z,7.20
2022-11-28T14:39:35.045Z,8.60
2022-11-28T14:45:07.984Z,6.65
2022-11-28T14:50:30.085Z,5.20
2022-11-28T14:55:52.018Z,3.17
2022-11-28T15:01:20.803Z,8.60
2022-11-28T15:06:43.652Z,9.38
2022-11-28T15:12:24.215Z,7.95
2022-11-28T15:17:49.556Z,12.43
2022-11-28T15:23:30.658Z,11.38
2022-11-28T15:29:27.183Z,6.18
2022-11-28T15:35:00.137Z,7.93
2022-11-28T15:40:40.413Z,7.95
2022-11-28T15:46:02.765Z,8.18
2022-11-28T15:51:28.866Z,7.53
2022-11-28T15:56:57.556Z,7.68
2022-11-28T16:02:40.968Z,5.35
2022-11-28T16:08:02.782Z,8.05
2022-11-28T16:13:25.149Z,5.78
2022-11-28T16:18:53.809Z,7.43
2022-11-28T16:24:35.295Z,5.32
2022-11-28T16:29:57.470Z,7.50
2022-11-28T16:35:33.978Z,7.43
2022-11-28T16:41:01.773Z,5.22
2022-11-28T16:46:25.865Z,5.35
2022-11-28T16:51:48.043Z,5.90
2022-11-28T16:57:17.417Z,5.28
2022-11-28T17:02:39.142Z,7.57
2022-11-28T17:08:01.865Z,7.65
2022-11-28T17:13:23.582Z,6.40
2022-11-28T17:18:46.221Z,6.55
2022-11-28T17:24:29.586Z,6.43
2022-11-28T17:29:51.338Z,5.47
2022-11-28T17:35:16.977Z,6.78
2022-11-28T17:40:42.226Z,15.73
2022-11-28T17:46:03.982Z,26.90
2022-11-28T17:51:26.362Z,36.25
2022-11-28T17:56:49.676Z,37.47
2022-11-28T18:02:11.439Z,39.55
2022-11-28T18:07:33.269Z,35.95
2022-11-28T18:12:56.036Z,39.90
2022-11-28T18:18:17.770Z,30.30
2022-11-28T18:23:46.228Z,31.85
2022-11-28T18:29:07.938Z,40.13
2022-11-28T18:34:29.650Z,33.55
2022-11-28T18:39:51.330Z,27.50
2022-11-28T18:45:13.104Z,37.42
2022-11-28T18:50:35.228Z,32.83
2022-11-28T18:56:02.302Z,23.45
2022-11-28T19:01:30.800Z,24.35
2022-11-28T19:06:52.834Z,31.60
2022-11-28T19:12:14.595Z,33.75
2022-11-28T19:17:36.285Z,44.22
2022-11-28T19:22:57.975Z,69.32
2022-11-28T19:28:19.643Z,52.95
2022-11-28T19:33:42.220Z,56.25
2022-11-28T19:39:04.846Z,44.58
2022-11-28T19:44:29.141Z,31.75
2022-11-28T19:49:50.778Z,43.22
2022-11-28T19:55:12.671Z,34.28
2022-11-28T20:00:34.295Z,25.15
2022-11-28T20:05:56.254Z,31.70
2022-11-28T20:11:22.278Z,26.95
2022-11-28T20:16:45.045Z,61.78
2022-11-28T20:22:07.834Z,47.53
2022-11-28T20:27:29.518Z,45.70
2022-11-28T20:32:51.166Z,56.92
2022-11-28T20:38:12.813Z,64.88
2022-11-28T20:43:37.102Z,31.40
2022-11-28T20:49:02.005Z,30.40
2022-11-28T20:54:25.706Z,32.43
2022-11-28T20:59:47.527Z,34.00
2022-11-28T21:05:09.365Z,39.17
2022-11-28T21:10:33.081Z,26.10
2022-11-28T21:15:54.762Z,20.33
2022-11-28T21:21:22.787Z,27.98
2022-11-28T21:26:51.337Z,26.92
2022-11-28T21:32:16.340Z,16.35
2022-11-28T21:37:37.978Z,22.55
2022-11-28T21:42:59.736Z,21.85
2022-11-28T21:48:21.458Z,20.00
2022-11-28T21:53:43.147Z,14.52
2022-11-28T21:59:04.994Z,12.95
2022-11-28T22:04:26.649Z,13.15
2022-11-28T22:09:48.455Z,10.13
2022-11-28T22:15:10.661Z,14.52
2022-11-28T22:20:32.324Z,9.63
2022-11-28T22:25:54.152Z,7.82
2022-11-28T22:31:17.934Z,11.27
2022-11-28T22:36:39.898Z,6.38
2022-11-28T22:42:01.590Z,8.20
2022-11-28T22:47:23.247Z,8.07
2022-11-28T22:52:44.906Z,6.90
2022-11-28T22:58:06.711Z,8.07
2022-11-28T23:03:28.485Z,5.50
2022-11-28T23:08:51.879Z,3.90
2022-11-28T23:14:14.285Z,3.75
2022-11-28T23:19:36.172Z,3.67
2022-11-28T23:24:57.928Z,4.57
2022-11-28T23:30:19.663Z,5.32
2022-11-28T23:35:41.293Z,3.00
2022-11-28T23:41:02.928Z,3.03
2022-11-28T23:46:26.274Z,3.97
2022-11-28T23:51:48.078Z,3.47
2022-11-28T23:57:09.802Z,1.95
